Time;durP1;ratioP1;P1;durP2;ratioP2;P2;SDS_P1;SDS_P2;PMS_P1;PMS_P2;Temp;Humidity;BMP_temperature;BMP_pressure;BME280_temperature;BME280_humidity;BME280_pressure;Samples;Min_cycle;Max_cycle;Signal;HPM_P1;HPM_P2
2023/01/20 00:01:37;;;;;;;20.88;11.63;;;0.90;99.90;;;;;;4908033;29;20036;-75
2023/01/20 00:04:04;;;;;;;19.88;11.77;;;1.00;99.90;;;;;;4907617;29;20063;-74
2023/01/20 00:06:30;;;;;;;19.38;10.95;;;1.00;99.90;;;;;;4907830;29;20029;-74
2023/01/20 00:08:59;;;;;;;18.00;10.57;;;1.10;99.90;;;;;;4908391;29;20104;-73
2023/01/20 00:11:25;;;;;;;21.58;11.98;;;1.10;99.90;;;;;;4907598;29;20041;-72
2023/01/20 00:13:59;;;;;;;20.92;10.82;;;1.10;99.90;;;;;;4907678;29;20040;-74
2023/01/20 00:16:27;;;;;;;24.42;12.18;;;1.10;99.90;;;;;;4907978;29;20180;-74
2023/01/20 00:18:53;;;;;;;19.13;11.73;;;1.20;99.90;;;;;;4907662;29;20095;-75
2023/01/20 00:21:19;;;;;;;17.67;11.45;;;1.20;99.90;;;;;;4907631;29;20036;-75
2023/01/20 00:23:46;;;;;;;19.35;10.35;;;1.20;99.90;;;;;;4907901;29;20043;-73
2023/01/20 00:26:17;;;;;;;16.60;11.10;;;1.20;99.90;;;;;;4907178;29;20163;-74
2023/01/20 00:28:44;;;;;;;17.00;10.52;;;1.30;99.90;;;;;;4908264;29;20056;-73
2023/01/20 06:01:21;;;;;;;12.80;7.22;;;1.10;99.90;;;;;;5878496;23;20024;31
2023/01/20 06:03:47;;;;;;;15.20;8.32;;;1.00;99.90;;;;;;4864961;29;20250;-75
2023/01/20 06:06:14;;;;;;;13.07;7.45;;;0.90;99.90;;;;;;4871686;29;20044;-76
2023/01/20 06:08:40;;;;;;;14.00;8.77;;;0.80;99.90;;;;;;4872715;29;20049;-75
2023/01/20 06:11:06;;;;;;;13.32;7.68;;;0.80;99.90;;;;;;4873445;29;20364;-74
2023/01/20 06:13:34;;;;;;;12.23;7.32;;;0.70;99.90;;;;;;4874828;29;20049;-73
2023/01/20 06:16:00;;;;;;;15.57;7.90;;;0.70;99.90;;;;;;4873262;29;20041;-76
2023/01/20 06:18:26;;;;;;;11.73;7.35;;;0.70;99.90;;;;;;4872278;29;20041;-74
2023/01/20 06:20:56;;;;;;;14.70;8.13;;;0.70;99.90;;;;;;4872748;29;20321;-75
2023/01/20 06:23:22;;;;;;;12.15;7.68;;;0.70;99.90;;;;;;4873007;29;20041;-74
2023/01/20 06:25:47;;;;;;;13.48;7.85;;;0.80;99.90;;;;;;4872870;29;20086;-75
2023/01/20 06:28:13;;;;;;;11.20;7.13;;;0.80;99.90;;;;;;4872829;29;20082;-75
2023/01/20 06:30:41;;;;;;;13.00;7.97;;;0.80;99.90;;;;;;4872709;29;20209;-75
2023/01/20 06:33:09;;;;;;;12.57;7.75;;;0.70;99.90;;;;;;4873153;29;20040;-74
2023/01/20 06:35:36;;;;;;;11.48;7.05;;;0.60;99.90;;;;;;4871400;29;20045;-75
2023/01/20 06:38:01;;;;;;;11.68;7.45;;;0.60;99.90;;;;;;4872805;29;20026;-74
2023/01/20 06:40:27;;;;;;;11.95;7.18;;;0.50;99.90;;;;;;4872563;29;20130;-75
2023/01/20 06:42:53;;;;;;;13.68;7.13;;;0.50;99.90;;;;;;4873037;29;20096;-75
2023/01/20 06:45:19;;;;;;;14.55;7.95;;;0.50;99.90;;;;;;4872857;29;20060;-75
2023/01/20 06:47:48;;;;;;;11.00;6.38;;;0.50;99.90;;;;;;4871921;29;20303;-76
2023/01/20 06:50:15;;;;;;;12.75;7.53;;;0.50;99.90;;;;;;4871600;29;20029;-74
2023/01/20 06:52:40;;;;;;;13.75;7.97;;;0.50;99.90;;;;;;4872676;29;20030;-75
2023/01/20 06:55:06;;;;;;;11.82;7.57;;;0.60;99.90;;;;;;4872631;29;20391;-75
2023/01/20 06:57:32;;;;;;;16.10;7.95;;;0.60;99.90;;;;;;4872130;29;20106;-76
2023/01/20 06:59:58;;;;;;;14.63;8.48;;;0.60;99.90;;;;;;4872682;29;20323;-73
2023/01/20 07:02:24;;;;;;;14.70;8.27;;;0.60;99.90;;;;;;4870741;29;20109;-75
2023/01/20 07:04:52;;;;;;;13.18;7.75;;;0.70;99.90;;;;;;4854042;29;20038;-73
2023/01/20 07:07:18;;;;;;;12.35;7.82;;;0.70;99.90;;;;;;4854234;29;20044;-76
2023/01/20 07:09:44;;;;;;;12.63;7.45;;;0.80;99.90;;;;;;4853447;29;20413;-77
2023/01/20 07:12:10;;;;;;;11.93;7.72;;;0.80;99.90;;;;;;4868317;29;20038;-77
2023/01/20 07:14:36;;;;;;;14.57;7.53;;;0.80;99.90;;;;;;4853202;29;20040;-77
2023/01/20 07:17:11;;;;;;;14.38;7.97;;;0.80;99.90;;;;;;4857595;29;20034;-76
2023/01/20 07:19:57;;;;;;;12.77;8.57;;;0.80;99.90;;;;;;4853258;29;20030;-76
2023/01/20 07:22:26;;;;;;;15.88;7.72;;;0.90;99.90;;;;;;4853753;29;20108;-75
2023/01/20 07:25:04;;;;;;;13.65;7.30;;;0.90;99.90;;;;;;4853478;29;20094;-76
2023/01/20 07:27:29;;;;;;;12.90;7.22;;;0.90;99.90;;;;;;4853207;29;20066;-76
2023/01/20 07:30:27;;;;;;;11.98;7.53;;;0.90;99.90;;;;;;4853171;29;20296;-75
2023/01/20 07:33:15;;;;;;;13.63;7.57;;;0.90;99.90;;;;;;4827437;29;20054;-76
2023/01/20 07:35:55;;;;;;;13.50;7.60;;;1.00;99.90;;;;;;4799007;29;20055;-74
2023/01/20 07:38:34;;;;;;;13.48;8.20;;;1.00;99.90;;;;;;4799945;29;20161;-74
2023/01/20 07:41:05;;;;;;;13.75;8.00;;;1.00;99.90;;;;;;4815386;29;20034;-76
2023/01/20 07:43:38;;;;;;;13.55;7.55;;;1.00;99.90;;;;;;4814315;29;20060;-75
2023/01/20 07:46:09;;;;;;;11.45;7.55;;;1.00;99.90;;;;;;4814388;29;20035;-75
2023/01/20 07:48:35;;;;;;;12.85;7.63;;;1.00;99.90;;;;;;4814402;29;20039;-77
2023/01/20 07:51:33;;;;;;;12.90;7.47;;;1.00;99.90;;;;;;4814813;29;20058;-75
2023/01/20 07:54:21;;;;;;;12.30;7.05;;;1.00;99.90;;;;;;4778836;30;20056;-74
2023/01/20 07:56:50;;;;;;;12.43;7.95;;;1.10;99.90;;;;;;4779083;30;20163;-76
2023/01/20 07:59:40;;;;;;;11.95;7.35;;;1.20;99.90;;;;;;4796526;30;20224;-75
2023/01/20 08:02:27;;;;;;;13.75;7.45;;;1.20;99.90;;;;;;4780094;30;20051;-75
2023/01/20 08:04:53;;;;;;;12.15;6.82;;;1.50;99.90;;;;;;4795772;29;20233;-74
2023/01/20 08:07:18;;;;;;;13.32;7.90;;;1.60;99.90;;;;;;4796420;30;20126;-72
2023/01/20 08:09:45;;;;;;;13.68;7.10;;;1.80;99.90;;;;;;4796118;30;20042;-76
2023/01/20 08:12:10;;;;;;;12.13;7.30;;;1.90;99.90;;;;;;4796166;30;20039;-74
2023/01/20 08:14:36;;;;;;;11.30;7.05;;;2.00;99.90;;;;;;4795308;30;20074;-72
2023/01/20 08:17:02;;;;;;;12.27;7.72;;;2.00;99.90;;;;;;4784579;29;20044;-73
2023/01/20 08:19:28;;;;;;;14.18;8.48;;;2.10;99.90;;;;;;4777839;30;20063;-73
2023/01/20 08:21:54;;;;;;;16.77;9.45;;;2.10;99.90;;;;;;4777746;30;20055;-71
2023/01/20 08:24:20;;;;;;;18.02;7.90;;;2.00;99.90;;;;;;4777918;30;20110;-71
2023/01/20 08:26:46;;;;;;;10.43;6.90;;;2.10;99.90;;;;;;4777586;30;20100;-72
2023/01/20 08:29:11;;;;;;;11.95;7.50;;;2.00;99.90;;;;;;4811260;29;20049;-72
2023/01/20 08:31:37;;;;;;;11.45;7.10;;;2.00;99.90;;;;;;4869984;29;20061;-76
2023/01/20 08:34:04;;;;;;;10.95;7.07;;;2.10;99.90;;;;;;4870541;29;20101;-74
2023/01/20 08:36:32;;;;;;;12.95;7.10;;;2.10;99.90;;;;;;4870159;29;20044;-72
2023/01/20 08:39:01;;;;;;;12.20;7.50;;;2.10;99.90;;;;;;4870534;29;20041;-73
2023/01/20 08:41:33;;;;;;;12.00;7.03;;;2.10;99.90;;;;;;4870634;29;20418;-74
2023/01/20 08:44:00;;;;;;;14.05;7.32;;;2.20;99.90;;;;;;4869281;29;20037;-73
2023/01/20 08:46:27;;;;;;;11.10;7.13;;;2.30;99.90;;;;;;4870709;29;20034;-72
2023/01/20 08:48:54;;;;;;;14.02;8.00;;;2.40;99.90;;;;;;4870112;29;20034;-72
2023/01/20 08:51:27;;;;;;;14.43;7.47;;;2.60;99.90;;;;;;4870489;29;20060;-73
2023/01/20 08:53:52;;;;;;;12.02;7.15;;;2.80;99.90;;;;;;4869737;29;20256;-71
2023/01/20 08:56:19;;;;;;;10.20;6.72;;;2.90;99.90;;;;;;4843736;29;20087;-71
2023/01/20 08:58:45;;;;;;;13.27;7.10;;;3.00;99.90;;;;;;4851237;29;20042;-72
2023/01/20 09:01:16;;;;;;;10.60;6.82;;;3.00;99.90;;;;;;4851933;29;20275;-73
2023/01/20 09:03:42;;;;;;;12.30;7.40;;;3.00;99.90;;;;;;4851355;29;20073;-72
2023/01/20 09:06:09;;;;;;;12.05;6.93;;;3.10;99.90;;;;;;4851683;29;20052;-72
2023/01/20 09:08:36;;;;;;;13.48;7.30;;;3.20;99.90;;;;;;4851480;29;20151;-73
2023/01/20 09:11:07;;;;;;;11.02;7.20;;;3.10;99.90;;;;;;4851382;29;20312;-72
2023/01/20 09:13:32;;;;;;;12.15;7.10;;;3.10;99.90;;;;;;4851253;29;20051;-71
2023/01/20 09:15:58;;;;;;;12.90;7.32;;;3.00;99.90;;;;;;4851364;29;20022;-72
2023/01/20 09:18:24;;;;;;;16.30;8.80;;;2.90;99.90;;;;;;4851566;29;20397;-72
2023/01/20 09:20:50;;;;;;;14.68;8.43;;;2.80;99.90;;;;;;4850700;29;20100;-72
2023/01/20 09:23:15;;;;;;;12.90;7.82;;;2.70;99.90;;;;;;4851025;29;20323;-72
2023/01/20 09:25:41;;;;;;;14.60;8.35;;;2.60;99.90;;;;;;4850888;29;20057;-72
2023/01/20 09:28:07;;;;;;;14.65;7.63;;;2.60;99.90;;;;;;4850503;29;20026;-73
2023/01/20 09:30:33;;;;;;;14.93;7.53;;;2.70;99.90;;;;;;4850961;29;20068;-72
2023/01/20 09:32:58;;;;;;;21.65;9.32;;;2.70;99.90;;;;;;4851216;29;20120;-72
2023/01/20 09:35:25;;;;;;;15.57;8.85;;;2.70;99.90;;;;;;4851101;29;20086;-72
2023/01/20 09:44:22;;;;;;;14.80;8.57;;;3.00;99.90;;;;;;4851135;29;20324;-72
2023/01/20 09:47:19;;;;;;;14.25;8.55;;;3.20;99.90;;;;;;4850378;29;20083;-73
2023/01/20 09:53:07;;;;;;;12.80;7.63;;;3.30;99.90;;;;;;4850768;29;20041;-74
2023/01/20 09:55:45;;;;;;;14.30;8.55;;;3.30;99.90;;;;;;4850477;29;20064;-74
2023/01/20 09:58:10;;;;;;;8.75;5.68;;;3.40;99.90;;;;;;4856938;29;20038;-72
2023/01/20 10:00:39;;;;;;;12.13;7.88;;;3.50;99.90;;;;;;4850405;29;20368;-71
2023/01/20 10:03:17;;;;;;;12.70;7.88;;;3.70;99.90;;;;;;4850001;29;20034;-73
2023/01/20 10:05:46;;;;;;;13.37;8.67;;;3.80;99.90;;;;;;4850347;29;20042;-71
2023/01/20 10:08:19;;;;;;;11.27;7.82;;;3.90;99.90;;;;;;4850918;29;20466;-72
2023/01/20 10:10:56;;;;;;;14.05;8.77;;;3.80;99.90;;;;;;4851030;29;20203;-72
2023/01/20 10:13:35;;;;;;;12.70;7.80;;;3.80;99.90;;;;;;4852033;29;20022;-73
2023/01/20 10:16:08;;;;;;;12.48;7.43;;;3.60;99.90;;;;;;4850851;29;20038;-71
2023/01/20 10:18:38;;;;;;;15.20;7.28;;;3.50;99.90;;;;;;4850576;29;20076;-72
2023/01/20 10:21:21;;;;;;;12.95;8.27;;;3.40;99.90;;;;;;4850594;29;20030;-71
2023/01/20 10:23:54;;;;;;;15.70;8.30;;;3.30;99.90;;;;;;4850471;29;20049;-72
2023/01/20 10:26:30;;;;;;;15.48;8.98;;;3.20;99.90;;;;;;4850494;29;20511;-72
2023/01/20 10:29:01;;;;;;;16.17;8.23;;;3.10;99.90;;;;;;4850249;29;20068;-74
2023/01/20 10:31:32;;;;;;;13.48;8.48;;;3.20;99.90;;;;;;4849712;29;20315;-74
2023/01/20 10:34:07;;;;;;;14.00;8.63;;;3.30;99.90;;;;;;4849770;29;20061;-73
2023/01/20 10:36:34;;;;;;;12.98;8.20;;;3.40;99.90;;;;;;4849682;29;20034;-73
2023/01/20 10:39:22;;;;;;;13.93;7.97;;;3.30;99.90;;;;;;4851311;29;20037;-72
2023/01/20 10:41:53;;;;;;;13.18;7.80;;;3.40;99.90;;;;;;4853539;29;20208;-72
2023/01/20 10:44:20;;;;;;;10.10;6.85;;;3.30;99.90;;;;;;4852539;29;20139;-72
2023/01/20 10:47:06;;;;;;;11.00;6.05;;;3.30;99.90;;;;;;4853094;29;20049;-72
2023/01/20 10:49:48;;;;;;;12.48;6.72;;;3.20;99.90;;;;;;4853558;29;20044;-71
2023/01/20 10:52:51;;;;;;;10.30;6.28;;;3.20;99.90;;;;;;4853851;29;20068;-72
2023/01/20 10:55:40;;;;;;;10.55;5.90;;;3.10;99.90;;;;;;4835218;29;20212;-74
2023/01/20 10:58:24;;;;;;;11.02;5.15;;;3.30;99.90;;;;;;4845456;29;20045;-73
2023/01/20 11:00:50;;;;;;;10.38;5.45;;;3.50;99.90;;;;;;4852996;29;20042;-72
2023/01/20 11:03:21;;;;;;;9.52;5.78;;;3.50;99.90;;;;;;4852211;29;20041;-73
2023/01/20 11:05:49;;;;;;;9.38;4.88;;;3.50;99.90;;;;;;4853105;29;20308;-72
2023/01/20 11:08:15;;;;;;;9.48;5.40;;;3.50;99.90;;;;;;4853398;29;20069;-71
2023/01/20 11:10:41;;;;;;;9.15;5.53;;;3.30;99.90;;;;;;4853091;29;20369;-73
2023/01/20 11:13:11;;;;;;;9.20;5.43;;;3.30;99.90;;;;;;4853340;29;20037;-74
2023/01/20 11:15:40;;;;;;;10.60;5.97;;;3.50;99.90;;;;;;4853094;29;20042;-71
2023/01/20 11:18:15;;;;;;;11.50;6.10;;;3.80;99.90;;;;;;4853393;29;20026;-71
2023/01/20 11:20:45;;;;;;;10.90;6.10;;;4.50;99.90;;;;;;4851881;29;20030;-71
2023/01/20 11:23:31;;;;;;;6.55;4.13;;;5.50;99.90;;;;;;4853249;29;20042;-72
2023/01/20 11:26:00;;;;;;;5.68;2.75;;;6.40;98.20;;;;;;4852508;29;20122;-72
2023/01/20 11:28:29;;;;;;;4.65;3.10;;;7.60;97.50;;;;;;4853216;29;20037;-71
2023/01/20 11:30:56;;;;;;;4.95;3.10;;;8.70;93.90;;;;;;4852673;29;20041;-73
2023/01/20 11:33:27;;;;;;;5.43;3.08;;;9.80;92.50;;;;;;4853030;29;20045;-73
2023/01/20 11:36:17;;;;;;;5.78;3.38;;;10.70;90.40;;;;;;4852898;29;20033;-72
2023/01/20 11:38:48;;;;;;;6.22;3.25;;;11.20;89.50;;;;;;4852564;29;20061;-74
2023/01/20 11:41:21;;;;;;;7.97;4.10;;;11.50;84.80;;;;;;4852955;29;20228;-72
2023/01/20 11:43:49;;;;;;;5.88;3.95;;;11.10;84.50;;;;;;4852601;29;20117;-72
2023/01/20 11:46:18;;;;;;;7.30;4.47;;;11.00;86.80;;;;;;4852854;29;20082;-71
2023/01/20 11:48:44;;;;;;;6.43;3.58;;;10.50;86.00;;;;;;4852560;29;20061;-72
2023/01/20 11:51:25;;;;;;;8.45;3.85;;;9.90;88.60;;;;;;4851964;29;20191;-72
2023/01/20 11:54:06;;;;;;;6.45;3.45;;;10.00;87.00;;;;;;4852291;29;20058;-73
2023/01/20 11:56:41;;;;;;;6.25;3.28;;;10.80;85.80;;;;;;4852958;29;20038;-71
2023/01/20 11:59:26;;;;;;;5.85;3.17;;;11.70;83.80;;;;;;4852649;29;20037;-70
2023/01/20 12:02:26;;;;;;;5.63;3.28;;;11.10;81.60;;;;;;4852053;29;20208;-71
2023/01/20 12:05:12;;;;;;;6.38;2.78;;;10.10;83.90;;;;;;4852010;29;20400;-73
2023/01/20 12:07:45;;;;;;;8.70;3.20;;;9.40;87.40;;;;;;4851672;29;20041;-71
2023/01/20 12:10:28;;;;;;;6.53;3.50;;;9.20;86.60;;;;;;4852337;29;20025;-71
2023/01/20 12:13:00;;;;;;;4.97;3.08;;;8.60;87.20;;;;;;4852307;29;20046;-71
2023/01/20 12:15:30;;;;;;;5.47;2.90;;;7.80;88.60;;;;;;4852136;29;20320;-72
2023/01/20 12:18:10;;;;;;;4.45;2.40;;;7.40;90.30;;;;;;4851800;29;20069;-71
2023/01/20 12:20:44;;;;;;;4.95;3.00;;;7.00;90.50;;;;;;4852313;29;20101;-73
2023/01/20 12:23:21;;;;;;;7.22;3.17;;;6.60;91.30;;;;;;4852019;29;20030;-72
2023/01/20 12:25:52;;;;;;;5.47;3.30;;;6.30;91.50;;;;;;4851884;29;20037;-75
2023/01/20 12:28:20;;;;;;;7.07;3.45;;;6.30;91.90;;;;;;4852018;29;20046;-75
2023/01/20 12:30:57;;;;;;;5.72;2.88;;;6.40;91.60;;;;;;4850003;29;20038;-75
2023/01/20 12:33:41;;;;;;;6.53;2.72;;;6.50;92.60;;;;;;4837352;29;20057;-72
2023/01/20 12:36:20;;;;;;;4.53;2.40;;;6.50;91.70;;;;;;4852014;29;20325;-74
2023/01/20 12:38:58;;;;;;;4.72;2.55;;;6.60;90.90;;;;;;4845417;29;20041;-71
2023/01/20 12:42:04;;;;;;;5.15;2.25;;;6.90;90.10;;;;;;4852291;29;20304;-73
2023/01/20 12:44:49;;;;;;;4.95;2.40;;;6.80;91.00;;;;;;4837887;29;20042;-75
2023/01/20 12:47:24;;;;;;;6.68;3.00;;;6.60;90.20;;;;;;4851718;29;20136;-74
2023/01/20 12:50:28;;;;;;;17.77;10.65;;;6.40;90.50;;;;;;4851005;29;20050;-74
2023/01/20 12:53:15;;;;;;;10.77;4.80;;;6.30;92.10;;;;;;4824508;29;20042;-75
2023/01/20 12:56:13;;;;;;;9.17;3.80;;;6.20;92.40;;;;;;4851689;29;20359;-76
2023/01/20 12:59:03;;;;;;;8.50;3.40;;;5.90;92.30;;;;;;4843307;29;20117;-75
2023/01/20 13:01:28;;;;;;;7.15;4.13;;;5.70;92.90;;;;;;4851437;29;20030;-75
2023/01/20 13:04:13;;;;;;;12.30;4.20;;;5.40;93.30;;;;;;4850456;29;20040;-76
2023/01/20 13:07:04;;;;;;;9.98;4.70;;;5.10;93.60;;;;;;4849573;29;20030;-75
2023/01/20 13:09:58;;;;;;;7.97;3.90;;;5.00;93.80;;;;;;4848873;29;20078;-76
2023/01/20 13:12:43;;;;;;;6.95;3.70;;;4.80;93.80;;;;;;4849619;29;20320;-75
2023/01/20 13:15:12;;;;;;;7.85;4.07;;;4.60;94.30;;;;;;4850859;29;20324;-77
2023/01/20 13:17:50;;;;;;;10.00;4.00;;;4.50;94.70;;;;;;4851377;29;20221;-74
2023/01/20 13:20:27;;;;;;;8.60;3.90;;;4.40;95.20;;;;;;4851460;29;20196;-75
2023/01/20 13:22:55;;;;;;;8.18;4.35;;;4.30;95.40;;;;;;4850553;29;20033;-75
2023/01/20 13:25:22;;;;;;;6.65;3.75;;;4.30;95.50;;;;;;4851532;29;20041;-74
2023/01/20 13:27:50;;;;;;;6.93;3.40;;;4.20;95.40;;;;;;4850603;29;20368;-74
2023/01/20 13:30:37;;;;;;;8.38;3.60;;;4.10;95.30;;;;;;4850995;29;20049;-74
2023/01/20 13:33:05;;;;;;;5.20;2.47;;;4.20;94.90;;;;;;4850645;29;20372;-73
2023/01/20 13:35:34;;;;;;;5.22;2.50;;;4.20;93.70;;;;;;4851594;29;20041;-79
2023/01/20 13:38:02;;;;;;;5.03;2.38;;;4.20;93.90;;;;;;4851244;29;20171;-78
2023/01/20 13:40:37;;;;;;;5.60;2.97;;;4.20;93.90;;;;;;4851654;29;20126;-77
2023/01/20 13:43:21;;;;;;;6.25;2.70;;;4.20;94.50;;;;;;4851402;29;20235;-79
2023/01/20 13:45:47;;;;;;;6.75;2.75;;;4.20;94.40;;;;;;4851351;29;20303;-77
2023/01/20 13:48:13;;;;;;;4.80;3.13;;;4.20;94.50;;;;;;4851036;29;20030;-78
2023/01/20 13:50:40;;;;;;;6.80;3.08;;;4.20;94.50;;;;;;4850053;29;20083;-80
2023/01/20 13:53:14;;;;;;;9.65;3.58;;;4.30;94.60;;;;;;4849399;29;20135;-76
2023/01/20 13:55:39;;;;;;;4.65;2.80;;;4.50;94.40;;;;;;4851182;29;20105;-77
2023/01/20 13:58:25;;;;;;;7.00;2.72;;;4.50;94.20;;;;;;4850013;29;20249;-79
2023/01/20 14:00:54;;;;;;;7.43;3.08;;;4.60;93.90;;;;;;4850451;29;20034;-78
2023/01/20 14:04:04;;;;;;;7.78;3.03;;;4.70;93.90;;;;;;4847833;29;20068;-77
2023/01/20 14:06:32;;;;;;;6.53;3.22;;;4.70;94.00;;;;;;4849303;29;20026;-78
2023/01/20 14:09:00;;;;;;;;;;;4.80;93.90;;;;;;4850798;29;20034;-77
2023/01/20 14:11:28;;;;;;;5.77;2.90;;;4.80;93.70;;;;;;4850177;29;19933;-75
2023/01/20 14:13:58;;;;;;;5.05;2.60;;;5.20;93.60;;;;;;4851527;29;20046;-77
2023/01/20 14:16:26;;;;;;;5.03;2.95;;;5.70;92.90;;;;;;4854735;29;20101;-77
2023/01/20 14:18:58;;;;;;;8.13;2.95;;;6.30;92.00;;;;;;4853894;29;20320;-78
2023/01/20 14:21:26;;;;;;;8.77;2.53;;;6.40;91.30;;;;;;4854440;29;20052;-77
2023/01/20 14:23:52;;;;;;;6.57;2.55;;;6.70;90.90;;;;;;4852731;29;20048;-78
2023/01/20 14:26:27;;;;;;;5.60;2.60;;;6.80;91.00;;;;;;4852992;29;20328;-78
2023/01/20 14:28:56;;;;;;;5.30;2.65;;;6.60;90.90;;;;;;4853650;29;20040;-77
2023/01/20 14:31:39;;;;;;;7.45;2.70;;;6.40;91.10;;;;;;4854003;29;20034;-77
2023/01/20 14:34:21;;;;;;;9.95;2.80;;;6.10;90.70;;;;;;4853526;29;20288;-77
2023/01/20 14:36:47;;;;;;;5.38;2.80;;;5.60;91.40;;;;;;4854180;29;20034;-77
2023/01/20 14:39:22;;;;;;;5.47;2.50;;;5.60;91.70;;;;;;4853051;29;20081;-77
2023/01/20 14:41:56;;;;;;;5.45;3.13;;;5.40;91.60;;;;;;4853953;29;20160;-79
2023/01/20 14:44:25;;;;;;;7.72;3.17;;;5.20;92.50;;;;;;4837400;29;20034;-77
2023/01/20 14:47:00;;;;;;;5.82;3.08;;;5.20;92.70;;;;;;4837317;29;20046;-76
2023/01/20 14:49:38;;;;;;;6.30;2.97;;;5.20;93.10;;;;;;4837609;29;20037;-76
2023/01/20 14:52:05;;;;;;;6.30;2.88;;;5.20;92.60;;;;;;4852249;29;20102;-77
2023/01/20 14:54:43;;;;;;;3.22;1.75;;;5.10;92.00;;;;;;4852705;29;20046;-78
2023/01/20 14:57:20;;;;;;;5.18;1.70;;;4.90;91.00;;;;;;4853162;29;20048;-76
2023/01/20 14:59:57;;;;;;;3.67;1.40;;;4.70;90.50;;;;;;4851276;29;20058;-76
2023/01/20 15:02:29;;;;;;;4.43;1.67;;;4.50;90.60;;;;;;4835135;29;20032;-79
2023/01/20 15:04:55;;;;;;;6.03;1.75;;;4.90;90.80;;;;;;4833462;29;20050;-76
2023/01/20 15:07:22;;;;;;;6.00;2.72;;;5.30;90.40;;;;;;4835127;29;20030;-77
2023/01/20 15:10:07;;;;;;;4.78;2.03;;;5.70;89.60;;;;;;4849636;29;20034;-80
2023/01/20 15:12:54;;;;;;;4.32;1.80;;;5.90;89.60;;;;;;4834185;29;20122;-77
2023/01/20 15:15:31;;;;;;;3.92;2.17;;;6.20;89.30;;;;;;4835140;29;20372;-78
2023/01/20 15:18:16;;;;;;;4.18;2.10;;;5.90;87.70;;;;;;4851466;29;20034;-77
2023/01/20 15:20:51;;;;;;;5.55;2.67;;;5.70;88.70;;;;;;4852274;29;20042;-77
2023/01/20 15:23:34;;;;;;;5.78;2.72;;;5.50;89.90;;;;;;4853431;29;20055;-76
2023/01/20 15:26:29;;;;;;;5.28;2.55;;;4.90;90.30;;;;;;4852876;29;20093;-78
2023/01/20 15:28:56;;;;;;;8.20;2.30;;;4.40;91.10;;;;;;4852035;29;20058;-77
2023/01/20 15:31:23;;;;;;;6.25;2.05;;;4.00;91.40;;;;;;4837071;29;20097;-77
2023/01/20 15:33:49;;;;;;;6.60;2.70;;;3.80;92.20;;;;;;4853401;29;20144;-76
2023/01/20 15:36:18;;;;;;;6.90;2.53;;;3.70;92.50;;;;;;4851530;29;20046;-76
2023/01/20 15:38:44;;;;;;;6.18;2.67;;;3.50;92.80;;;;;;4852230;29;20034;-78
2023/01/20 15:41:13;;;;;;;4.95;2.50;;;3.40;93.20;;;;;;4851610;29;20056;-77
2023/01/20 15:43:41;;;;;;;3.58;2.10;;;3.30;93.20;;;;;;4852169;29;20060;-76
2023/01/20 15:46:15;;;;;;;3.85;2.28;;;3.20;94.10;;;;;;4836801;29;20042;-78
2023/01/20 15:48:41;;;;;;;3.85;2.30;;;3.10;93.40;;;;;;4851964;29;20046;-77
2023/01/20 15:51:25;;;;;;;7.70;4.30;;;3.00;94.00;;;;;;4850910;29;20041;-76
2023/01/20 15:53:51;;;;;;;11.52;7.05;;;2.80;94.80;;;;;;4852839;29;20040;-76
2023/01/20 15:56:25;;;;;;;10.60;6.03;;;2.60;95.90;;;;;;4852481;29;20057;-77
2023/01/20 15:58:51;;;;;;;13.10;5.28;;;2.50;96.60;;;;;;4853017;29;20030;-76
2023/01/20 16:01:22;;;;;;;8.85;5.03;;;2.30;97.00;;;;;;4851685;29;20339;-77
2023/01/20 16:03:54;;;;;;;13.07;5.07;;;2.20;97.30;;;;;;4854094;29;20034;-76
2023/01/20 16:06:30;;;;;;;11.50;5.93;;;2.10;97.60;;;;;;4870962;29;20046;-79
2023/01/20 16:08:59;;;;;;;10.45;4.78;;;2.00;97.30;;;;;;4869937;29;20078;-77
2023/01/20 16:11:26;;;;;;;6.82;3.88;;;1.90;97.80;;;;;;4870157;29;20089;-77
2023/01/20 16:13:52;;;;;;;10.52;4.60;;;1.80;98.00;;;;;;4854681;29;20089;-78
2023/01/20 16:16:20;;;;;;;10.77;4.97;;;1.70;98.10;;;;;;4870515;29;20037;-78
2023/01/20 16:18:47;;;;;;;8.30;4.30;;;1.50;98.30;;;;;;4871138;29;20041;-77
2023/01/20 16:21:18;;;;;;;6.50;4.10;;;1.40;98.50;;;;;;4854225;29;20037;-78
2023/01/20 16:23:44;;;;;;;10.18;5.28;;;1.30;98.50;;;;;;4870865;29;20063;-77
2023/01/20 16:26:22;;;;;;;9.57;4.95;;;1.20;98.90;;;;;;4869259;29;20040;-77
2023/01/20 16:28:48;;;;;;;11.43;6.05;;;1.20;99.30;;;;;;4870797;29;20279;-78
2023/01/20 16:31:15;;;;;;;13.18;6.00;;;1.10;99.20;;;;;;4869343;29;20273;-77
2023/01/20 16:33:40;;;;;;;10.88;5.20;;;1.10;99.80;;;;;;4869702;29;20101;-79
2023/01/20 16:36:12;;;;;;;11.32;6.90;;;1.00;99.80;;;;;;4869010;29;20033;-76
2023/01/20 16:38:38;;;;;;;12.13;6.47;;;0.90;99.90;;;;;;4851308;29;20228;-76
2023/01/20 16:41:20;;;;;;;15.25;6.90;;;0.90;99.90;;;;;;4851835;29;20316;-78
2023/01/20 16:43:46;;;;;;;12.45;7.28;;;0.80;99.90;;;;;;4854692;29;20215;-78
2023/01/20 16:46:21;;;;;;;14.30;7.20;;;0.80;99.90;;;;;;4869423;29;20021;-77
2023/01/20 16:48:47;;;;;;;15.85;8.40;;;0.70;99.90;;;;;;4870869;29;20029;-77
2023/01/20 16:51:17;;;;;;;14.52;7.90;;;0.60;99.90;;;;;;4869311;29;20039;-76
2023/01/20 16:53:43;;;;;;;13.07;7.10;;;0.60;99.90;;;;;;4869674;29;20037;-79
2023/01/20 16:56:20;;;;;;;11.45;6.47;;;0.60;99.90;;;;;;4869312;29;20138;-77
2023/01/20 16:58:50;;;;;;;10.30;6.07;;;0.50;99.90;;;;;;4870631;29;20037;-79
2023/01/20 17:01:20;;;;;;;12.35;6.75;;;0.40;99.90;;;;;;4853848;29;20306;-78
2023/01/20 17:03:50;;;;;;;13.75;6.35;;;0.30;99.90;;;;;;4870308;29;20448;-78
2023/01/20 17:06:18;;;;;;;13.88;6.50;;;0.20;99.90;;;;;;4853578;29;20033;-78
2023/01/20 17:08:46;;;;;;;14.85;6.97;;;0.20;99.90;;;;;;4869107;29;20032;-76
2023/01/20 17:11:35;;;;;;;13.00;7.40;;;0.20;99.90;;;;;;4868765;29;20029;-77
2023/01/20 17:14:04;;;;;;;13.68;7.15;;;0.10;99.90;;;;;;4869464;29;20054;-78
2023/01/20 17:16:30;;;;;;;12.18;7.05;;;0.10;99.90;;;;;;4853342;29;20066;-75
2023/01/20 17:18:58;;;;;;;13.10;7.97;;;0.00;99.90;;;;;;4870106;29;20048;-78
2023/01/20 17:21:26;;;;;;;14.50;7.80;;;0.00;99.90;;;;;;4869751;29;20215;-79
2023/01/20 17:23:57;;;;;;;14.63;7.40;;;-0.10;99.90;;;;;;4869625;29;20045;-77
2023/01/20 17:26:24;;;;;;;16.40;7.82;;;-0.10;99.90;;;;;;4853330;29;20055;-76
2023/01/20 17:28:56;;;;;;;16.50;9.15;;;-0.10;99.90;;;;;;4870178;29;20041;-74
2023/01/20 17:31:23;;;;;;;18.85;9.38;;;-0.20;99.90;;;;;;4868462;29;20223;-77
2023/01/20 17:33:50;;;;;;;16.98;8.50;;;-0.20;99.90;;;;;;4870152;29;20040;-76
2023/01/20 17:36:16;;;;;;;15.30;7.90;;;-0.20;99.90;;;;;;4870647;29;20311;-78
2023/01/20 17:38:42;;;;;;;13.13;7.28;;;-0.20;99.90;;;;;;4869622;29;20034;-77
2023/01/20 17:41:09;;;;;;;15.48;8.30;;;-0.20;99.90;;;;;;4869488;29;20021;-77
2023/01/20 17:43:40;;;;;;;12.70;7.32;;;-0.20;99.90;;;;;;4869462;29;20041;-78
2023/01/20 17:46:26;;;;;;;14.15;7.53;;;-0.30;99.90;;;;;;4869209;29;20102;-75
2023/01/20 17:48:54;;;;;;;14.27;7.22;;;-0.30;99.90;;;;;;4868751;29;20207;-75
2023/01/20 17:51:22;;;;;;;;;;;-0.30;99.90;;;;;;4874666;29;20219;-78
2023/01/20 17:53:48;;;;;;;14.77;8.30;;;-0.30;99.90;;;;;;4868631;29;19908;-79
2023/01/20 17:56:14;;;;;;;13.77;7.57;;;-0.40;99.90;;;;;;4867975;29;20043;-76
2023/01/20 17:58:43;;;;;;;16.15;8.65;;;-0.30;99.90;;;;;;4864866;29;20048;-77
2023/01/20 18:01:17;;;;;;;16.45;8.00;;;-0.30;99.90;;;;;;4849481;29;20026;-78
2023/01/20 18:03:46;;;;;;;17.73;8.88;;;-0.30;99.90;;;;;;4851010;29;20350;-79
2023/01/20 18:06:13;;;;;;;14.13;7.72;;;-0.30;99.90;;;;;;4850633;29;20082;-80
2023/01/20 18:08:39;;;;;;;15.05;7.85;;;-0.30;99.90;;;;;;4850920;29;20034;-79
2023/01/20 18:11:11;;;;;;;15.63;8.32;;;-0.40;99.90;;;;;;4850622;29;20074;-79
2023/01/20 18:13:41;;;;;;;12.45;7.13;;;-0.40;99.90;;;;;;4853257;29;20025;-80
2023/01/20 18:16:41;;;;;;;12.82;6.75;;;-0.40;99.90;;;;;;4855618;29;20030;-80
2023/01/20 18:22:05;;;;;;;15.63;7.30;;;-0.40;99.90;;;;;;4869153;29;20223;-79
2023/01/20 18:24:40;;;;;;;16.98;8.88;;;-0.30;99.90;;;;;;4868381;29;20033;-79
2023/01/20 18:27:13;;;;;;;16.00;9.10;;;-0.30;99.90;;;;;;4867871;29;20065;-84
2023/01/20 18:29:40;;;;;;;16.08;8.27;;;-0.20;99.90;;;;;;4852759;29;20061;-79
2023/01/20 18:32:12;;;;;;;14.35;8.18;;;-0.30;99.90;;;;;;4867925;29;20056;-83
2023/01/20 18:34:37;;;;;;;15.45;8.10;;;-0.30;99.90;;;;;;4869279;29;20105;-81
2023/01/20 18:37:09;;;;;;;16.60;8.02;;;-0.40;99.90;;;;;;4868130;29;20315;-80
2023/01/20 18:39:36;;;;;;;14.43;7.80;;;-0.50;99.90;;;;;;4868045;29;20025;-82
2023/01/20 18:42:01;;;;;;;16.35;8.60;;;-0.50;99.90;;;;;;4868117;29;20022;-81
2023/01/20 18:44:27;;;;;;;15.80;8.82;;;-0.60;99.90;;;;;;4852373;29;20038;-79
2023/01/20 18:46:56;;;;;;;11.98;7.85;;;-0.60;99.90;;;;;;4868276;29;20108;-80
2023/01/20 18:49:22;;;;;;;16.42;8.52;;;-0.60;99.90;;;;;;4868964;29;20100;-79
2023/01/20 18:51:48;;;;;;;20.70;8.27;;;-0.60;99.90;;;;;;4868232;29;20033;-78
2023/01/20 18:54:16;;;;;;;15.65;8.70;;;-0.60;99.90;;;;;;4869754;29;20040;-82
2023/01/20 18:56:42;;;;;;;;;;;-0.50;99.90;;;;;;4869084;29;20036;-77
2023/01/20 18:59:09;;;;;;;15.43;8.05;;;-0.50;99.90;;;;;;4864400;29;19908;-81